sensor_id;sensor_type;location;lat;lon;timestamp;P1;P2;P0
77365;PMS5003;66430;50.182;11.704;2023-02-01T00:00:20;14;12;
77365;PMS5003;66430;50.182;11.704;2023-02-01T00:02:45;10;9;
77365;PMS5003;66430;50.182;11.704;2023-02-01T00:05:11;14;11;
77365;PMS5003;66430;50.182;11.704;2023-02-01T00:07:36;12;11;
77365;PMS5003;66430;50.182;11.704;2023-02-01T00:10:02;12;11;
77365;PMS5003;66430;50.182;11.704;2023-02-01T00:12:29;14;12;
77365;PMS5003;66430;50.182;11.704;2023-02-01T00:14:53;12;11;
77365;PMS5003;66430;50.182;11.704;2023-02-01T00:17:19;9;8;
77365;PMS5003;66430;50.182;11.704;2023-02-01T00:19:44;15;15;
77365;PMS5003;66430;50.182;11.704;2023-02-01T00:22:10;15;9;
77365;PMS5003;66430;50.182;11.704;2023-02-01T00:24:35;10;10;
77365;PMS5003;66430;50.182;11.704;2023-02-01T00:27:01;13;11;
77365;PMS5003;66430;50.182;11.704;2023-02-01T00:29:26;10;10;
77365;PMS5003;66430;50.182;11.704;2023-02-01T00:31:52;11;11;
77365;PMS5003;66430;50.182;11.704;2023-02-01T00:34:17;10;10;
77365;PMS5003;66430;50.182;11.704;2023-02-01T00:36:43;11;11;
77365;PMS5003;66430;50.182;11.704;2023-02-01T00:39:08;10;8;
77365;PMS5003;66430;50.182;11.704;2023-02-01T00:41:33;8;8;
77365;PMS5003;66430;50.182;11.704;2023-02-01T00:43:59;9;9;
77365;PMS5003;66430;50.182;11.704;2023-02-01T00:46:24;16;16;
77365;PMS5003;66430;50.182;11.704;2023-02-01T00:48:50;8;8;
77365;PMS5003;66430;50.182;11.704;2023-02-01T00:51:16;8;8;
77365;PMS5003;66430;50.182;11.704;2023-02-01T00:53:41;13;11;
77365;PMS5003;66430;50.182;11.704;2023-02-01T00:56:07;9;9;
77365;PMS5003;66430;50.182;11.704;2023-02-01T00:58:33;16;13;
77365;PMS5003;66430;50.182;11.704;2023-02-01T01:01:02;9;9;
77365;PMS5003;66430;50.182;11.704;2023-02-01T01:03:24;12;9;
77365;PMS5003;66430;50.182;11.704;2023-02-01T01:05:49;11;9;
77365;PMS5003;66430;50.182;11.704;2023-02-01T01:08:15;11;11;
77365;PMS5003;66430;50.182;11.704;2023-02-01T01:10:41;10;8;
77365;PMS5003;66430;50.182;11.704;2023-02-01T01:13:06;12;10;
77365;PMS5003;66430;50.182;11.704;2023-02-01T01:15:32;9;9;
77365;PMS5003;66430;50.182;11.704;2023-02-01T01:17:56;13;13;
77365;PMS5003;66430;50.182;11.704;2023-02-01T01:20:22;12;12;
77365;PMS5003;66430;50.182;11.704;2023-02-01T01:22:47;10;10;
77365;PMS5003;66430;50.182;11.704;2023-02-01T01:25:13;11;11;
77365;PMS5003;66430;50.182;11.704;2023-02-01T01:27:38;15;15;
77365;PMS5003;66430;50.182;11.704;2023-02-01T01:30:04;12;10;
77365;PMS5003;66430;50.182;11.704;2023-02-01T01:32:29;10;10;
77365;PMS5003;66430;50.182;11.704;2023-02-01T01:34:55;14;11;
77365;PMS5003;66430;50.182;11.704;2023-02-01T01:37:21;11;11;
77365;PMS5003;66430;50.182;11.704;2023-02-01T01:39:46;12;11;
77365;PMS5003;66430;50.182;11.704;2023-02-01T01:42:12;10;8;
77365;PMS5003;66430;50.182;11.704;2023-02-01T01:47:03;10;9;
77365;PMS5003;66430;50.182;11.704;2023-02-01T01:49:28;11;8;
77365;PMS5003;66430;50.182;11.704;2023-02-01T01:51:54;3;3;
77365;PMS5003;66430;50.182;11.704;2023-02-01T01:54:20;4;4;
77365;PMS5003;66430;50.182;11.704;2023-02-01T01:56:46;2;2;
77365;PMS5003;66430;50.182;11.704;2023-02-01T01:59:11;5;2;
77365;PMS5003;66430;50.182;11.704;2023-02-01T02:01:36;1;1;
77365;PMS5003;66430;50.182;11.704;2023-02-01T02:04:02;4;2;
77365;PMS5003;66430;50.182;11.704;2023-02-01T02:06:31;2;2;
77365;PMS5003;66430;50.182;11.704;2023-02-01T02:08:53;1;1;
77365;PMS5003;66430;50.182;11.704;2023-02-01T02:11:19;4;3;
77365;PMS5003;66430;50.182;11.704;2023-02-01T02:13:46;4;3;
77365;PMS5003;66430;50.182;11.704;2023-02-01T02:16:14;4;3;
77365;PMS5003;66430;50.182;11.704;2023-02-01T02:18:37;2;2;
77365;PMS5003;66430;50.182;11.704;2023-02-01T02:23:33;8;4;
77365;PMS5003;66430;50.182;11.704;2023-02-01T02:25:56;5;4;
77365;PMS5003;66430;50.182;11.704;2023-02-01T02:28:24;4;2;
77365;PMS5003;66430;50.182;11.704;2023-02-01T02:30:53;4;1;
77365;PMS5003;66430;50.182;11.704;2023-02-01T02:33:19;4;2;
77365;PMS5003;66430;50.182;11.704;2023-02-01T02:35:35;4;3;
77365;PMS5003;66430;50.182;11.704;2023-02-01T02:38:02;2;2;
77365;PMS5003;66430;50.182;11.704;2023-02-01T02:40:27;8;4;
77365;PMS5003;66430;50.182;11.704;2023-02-01T02:42:52;5;5;
77365;PMS5003;66430;50.182;11.704;2023-02-01T02:45:17;6;4;
77365;PMS5003;66430;50.182;11.704;2023-02-01T02:47:42;8;5;
77365;PMS5003;66430;50.182;11.704;2023-02-01T02:50:10;6;5;
77365;PMS5003;66430;50.182;11.704;2023-02-01T02:52:33;6;4;
77365;PMS5003;66430;50.182;11.704;2023-02-01T02:54:59;6;6;
77365;PMS5003;66430;50.182;11.704;2023-02-01T02:57:25;6;6;
77365;PMS5003;66430;50.182;11.704;2023-02-01T02:59:50;7;7;
77365;PMS5003;66430;50.182;11.704;2023-02-01T03:02:15;10;10;
77365;PMS5003;66430;50.182;11.704;2023-02-01T03:04:41;10;10;
77365;PMS5003;66430;50.182;11.704;2023-02-01T03:07:11;10;10;
77365;PMS5003;66430;50.182;11.704;2023-02-01T03:09:33;6;6;
77365;PMS5003;66430;50.182;11.704;2023-02-01T03:11:59;10;8;
77365;PMS5003;66430;50.182;11.704;2023-02-01T03:14:23;11;10;
77365;PMS5003;66430;50.182;11.704;2023-02-01T03:16:50;5;4;
77365;PMS5003;66430;50.182;11.704;2023-02-01T03:19:15;10;8;
77365;PMS5003;66430;50.182;11.704;2023-02-01T03:21:40;10;8;
77365;PMS5003;66430;50.182;11.704;2023-02-01T03:24:07;11;6;
77365;PMS5003;66430;50.182;11.704;2023-02-01T03:26:31;8;8;
77365;PMS5003;66430;50.182;11.704;2023-02-01T03:29:03;6;6;
77365;PMS5003;66430;50.182;11.704;2023-02-01T03:31:22;9;6;
77365;PMS5003;66430;50.182;11.704;2023-02-01T03:33:48;9;8;
77365;PMS5003;66430;50.182;11.704;2023-02-01T03:36:15;9;8;
77365;PMS5003;66430;50.182;11.704;2023-02-01T03:38:40;9;8;
77365;PMS5003;66430;50.182;11.704;2023-02-01T03:41:08;9;9;
77365;PMS5003;66430;50.182;11.704;2023-02-01T03:43:32;10;10;
77365;PMS5003;66430;50.182;11.704;2023-02-01T03:45:57;9;9;
77365;PMS5003;66430;50.182;11.704;2023-02-01T03:48:21;11;11;
77365;PMS5003;66430;50.182;11.704;2023-02-01T03:50:48;10;9;
77365;PMS5003;66430;50.182;11.704;2023-02-01T03:53:13;10;10;
77365;PMS5003;66430;50.182;11.704;2023-02-01T03:55:38;9;9;
77365;PMS5003;66430;50.182;11.704;2023-02-01T03:58:06;11;11;
77365;PMS5003;66430;50.182;11.704;2023-02-01T04:00:29;9;9;
77365;PMS5003;66430;50.182;11.704;2023-02-01T04:02:54;8;8;
77365;PMS5003;66430;50.182;11.704;2023-02-01T04:05:20;8;8;
77365;PMS5003;66430;50.182;11.704;2023-02-01T04:07:46;9;9;
77365;PMS5003;66430;50.182;11.704;2023-02-01T04:10:11;11;8;
77365;PMS5003;66430;50.182;11.704;2023-02-01T04:12:37;14;10;
77365;PMS5003;66430;50.182;11.704;2023-02-01T04:15:02;11;10;
77365;PMS5003;66430;50.182;11.704;2023-02-01T04:17:27;11;11;
77365;PMS5003;66430;50.182;11.704;2023-02-01T04:19:53;12;12;
77365;PMS5003;66430;50.182;11.704;2023-02-01T04:22:19;17;15;
77365;PMS5003;66430;50.182;11.704;2023-02-01T04:24:44;13;11;
77365;PMS5003;66430;50.182;11.704;2023-02-01T04:27:10;16;15;
77365;PMS5003;66430;50.182;11.704;2023-02-01T04:29:35;13;10;
77365;PMS5003;66430;50.182;11.704;2023-02-01T04:32:03;15;11;
77365;PMS5003;66430;50.182;11.704;2023-02-01T04:34:26;13;10;
77365;PMS5003;66430;50.182;11.704;2023-02-01T04:36:52;16;16;
77365;PMS5003;66430;50.182;11.704;2023-02-01T04:39:18;13;11;
77365;PMS5003;66430;50.182;11.704;2023-02-01T04:41:43;13;12;
77365;PMS5003;66430;50.182;11.704;2023-02-01T04:44:09;14;12;
77365;PMS5003;66430;50.182;11.704;2023-02-01T04:46:34;13;11;
77365;PMS5003;66430;50.182;11.704;2023-02-01T04:49:00;12;12;
77365;PMS5003;66430;50.182;11.704;2023-02-01T04:51:26;11;9;
77365;PMS5003;66430;50.182;11.704;2023-02-01T04:53:51;11;10;
77365;PMS5003;66430;50.182;11.704;2023-02-01T04:56:17;13;12;
77365;PMS5003;66430;50.182;11.704;2023-02-01T04:58:42;12;11;
77365;PMS5003;66430;50.182;11.704;2023-02-01T05:01:08;11;11;
77365;PMS5003;66430;50.182;11.704;2023-02-01T05:03:34;16;13;
77365;PMS5003;66430;50.182;11.704;2023-02-01T05:05:59;13;12;
77365;PMS5003;66430;50.182;11.704;2023-02-01T05:08:25;13;11;
77365;PMS5003;66430;50.182;11.704;2023-02-01T05:10:50;16;12;
77365;PMS5003;66430;50.182;11.704;2023-02-01T05:13:17;11;11;
77365;PMS5003;66430;50.182;11.704;2023-02-01T05:15:41;17;15;
77365;PMS5003;66430;50.182;11.704;2023-02-01T05:18:07;16;13;
77365;PMS5003;66430;50.182;11.704;2023-02-01T05:20:32;10;9;
77365;PMS5003;66430;50.182;11.704;2023-02-01T05:22:58;11;11;
77365;PMS5003;66430;50.182;11.704;2023-02-01T05:25:23;9;9;
77365;PMS5003;66430;50.182;11.704;2023-02-01T05:27:49;12;12;
77365;PMS5003;66430;50.182;11.704;2023-02-01T05:30:15;12;12;
77365;PMS5003;66430;50.182;11.704;2023-02-01T05:32:40;12;11;
77365;PMS5003;66430;50.182;11.704;2023-02-01T05:35:05;12;11;
77365;PMS5003;66430;50.182;11.704;2023-02-01T05:37:31;13;12;
77365;PMS5003;66430;50.182;11.704;2023-02-01T05:39:56;11;11;
77365;PMS5003;66430;50.182;11.704;2023-02-01T05:42:22;15;12;
77365;PMS5003;66430;50.182;11.704;2023-02-01T05:44:47;15;10;
77365;PMS5003;66430;50.182;11.704;2023-02-01T05:47:13;12;12;
77365;PMS5003;66430;50.182;11.704;2023-02-01T05:49:38;10;9;
77365;PMS5003;66430;50.182;11.704;2023-02-01T05:52:04;17;10;
77365;PMS5003;66430;50.182;11.704;2023-02-01T05:54:29;14;14;
77365;PMS5003;66430;50.182;11.704;2023-02-01T05:56:55;14;10;
77365;PMS5003;66430;50.182;11.704;2023-02-01T05:59:21;12;9;
77365;PMS5003;66430;50.182;11.704;2023-02-01T06:01:46;12;12;
77365;PMS5003;66430;50.182;11.704;2023-02-01T06:04:12;9;9;
77365;PMS5003;66430;50.182;11.704;2023-02-01T06:06:37;11;10;
77365;PMS5003;66430;50.182;11.704;2023-02-01T06:09:03;12;11;
77365;PMS5003;66430;50.182;11.704;2023-02-01T06:11:29;13;13;
77365;PMS5003;66430;50.182;11.704;2023-02-01T06:13:54;13;12;
77365;PMS5003;66430;50.182;11.704;2023-02-01T06:16:25;15;11;
77365;PMS5003;66430;50.182;11.704;2023-02-01T06:18:45;12;10;
77365;PMS5003;66430;50.182;11.704;2023-02-01T06:21:10;12;12;
77365;PMS5003;66430;50.182;11.704;2023-02-01T06:23:36;18;12;
77365;PMS5003;66430;50.182;11.704;2023-02-01T06:26:02;13;13;
77365;PMS5003;66430;50.182;11.704;2023-02-01T06:28:27;15;13;
77365;PMS5003;66430;50.182;11.704;2023-02-01T06:30:52;15;12;
77365;PMS5003;66430;50.182;11.704;2023-02-01T06:33:18;15;11;
77365;PMS5003;66430;50.182;11.704;2023-02-01T06:35:44;11;11;
77365;PMS5003;66430;50.182;11.704;2023-02-01T06:38:09;12;10;
77365;PMS5003;66430;50.182;11.704;2023-02-01T06:40:35;11;11;
77365;PMS5003;66430;50.182;11.704;2023-02-01T06:43:01;15;12;
77365;PMS5003;66430;50.182;11.704;2023-02-01T06:45:26;12;9;
77365;PMS5003;66430;50.182;11.704;2023-02-01T06:47:52;17;12;
77365;PMS5003;66430;50.182;11.704;2023-02-01T06:50:17;9;9;
77365;PMS5003;66430;50.182;11.704;2023-02-01T06:52:42;9;9;
77365;PMS5003;66430;50.182;11.704;2023-02-01T06:55:08;17;11;
77365;PMS5003;66430;50.182;11.704;2023-02-01T06:57:34;16;16;
77365;PMS5003;66430;50.182;11.704;2023-02-01T06:59:59;12;11;
77365;PMS5003;66430;50.182;11.704;2023-02-01T07:02:25;11;8;
77365;PMS5003;66430;50.182;11.704;2023-02-01T07:04:50;12;11;
77365;PMS5003;66430;50.182;11.704;2023-02-01T07:07:16;19;17;
77365;PMS5003;66430;50.182;11.704;2023-02-01T07:09:42;11;10;
77365;PMS5003;66430;50.182;11.704;2023-02-01T07:12:07;9;9;
77365;PMS5003;66430;50.182;11.704;2023-02-01T07:14:33;10;10;
77365;PMS5003;66430;50.182;11.704;2023-02-01T07:16:58;15;11;
77365;PMS5003;66430;50.182;11.704;2023-02-01T07:19:24;14;11;
77365;PMS5003;66430;50.182;11.704;2023-02-01T07:21:50;14;10;
77365;PMS5003;66430;50.182;11.704;2023-02-01T07:24:15;11;10;
77365;PMS5003;66430;50.182;11.704;2023-02-01T07:26:41;12;12;
77365;PMS5003;66430;50.182;11.704;2023-02-01T07:29:06;11;11;
77365;PMS5003;66430;50.182;11.704;2023-02-01T07:31:32;14;10;
77365;PMS5003;66430;50.182;11.704;2023-02-01T07:33:57;11;10;
77365;PMS5003;66430;50.182;11.704;2023-02-01T07:36:23;11;9;
77365;PMS5003;66430;50.182;11.704;2023-02-01T07:38:49;16;13;
77365;PMS5003;66430;50.182;11.704;2023-02-01T07:41:19;11;10;
77365;PMS5003;66430;50.182;11.704;2023-02-01T07:43:40;10;9;
77365;PMS5003;66430;50.182;11.704;2023-02-01T07:46:05;11;11;
77365;PMS5003;66430;50.182;11.704;2023-02-01T07:48:32;9;9;
77365;PMS5003;66430;50.182;11.704;2023-02-01T07:50:57;11;9;
77365;PMS5003;66430;50.182;11.704;2023-02-01T07:53:22;11;11;
77365;PMS5003;66430;50.182;11.704;2023-02-01T07:55:47;11;10;
77365;PMS5003;66430;50.182;11.704;2023-02-01T07:58:13;10;8;
77365;PMS5003;66430;50.182;11.704;2023-02-01T08:00:39;12;10;
77365;PMS5003;66430;50.182;11.704;2023-02-01T08:03:04;10;10;
77365;PMS5003;66430;50.182;11.704;2023-02-01T08:05:30;12;11;
77365;PMS5003;66430;50.182;11.704;2023-02-01T08:07:55;9;9;
77365;PMS5003;66430;50.182;11.704;2023-02-01T08:10:21;10;10;
77365;PMS5003;66430;50.182;11.704;2023-02-01T08:12:47;18;10;
77365;PMS5003;66430;50.182;11.704;2023-02-01T08:15:12;14;9;
77365;PMS5003;66430;50.182;11.704;2023-02-01T08:17:38;11;11;
77365;PMS5003;66430;50.182;11.704;2023-02-01T08:20:04;11;10;
77365;PMS5003;66430;50.182;11.704;2023-02-01T08:22:31;12;10;
77365;PMS5003;66430;50.182;11.704;2023-02-01T08:24:55;9;8;
77365;PMS5003;66430;50.182;11.704;2023-02-01T08:27:21;9;9;
77365;PMS5003;66430;50.182;11.704;2023-02-01T08:29:46;12;10;
77365;PMS5003;66430;50.182;11.704;2023-02-01T08:32:11;9;8;
77365;PMS5003;66430;50.182;11.704;2023-02-01T08:34:37;15;12;
77365;PMS5003;66430;50.182;11.704;2023-02-01T08:37:02;9;9;
77365;PMS5003;66430;50.182;11.704;2023-02-01T08:39:28;11;9;
77365;PMS5003;66430;50.182;11.704;2023-02-01T08:41:53;9;8;
77365;PMS5003;66430;50.182;11.704;2023-02-01T08:44:19;9;9;
77365;PMS5003;66430;50.182;11.704;2023-02-01T08:46:44;12;10;
77365;PMS5003;66430;50.182;11.704;2023-02-01T08:49:09;9;9;
77365;PMS5003;66430;50.182;11.704;2023-02-01T08:51:35;9;8;
77365;PMS5003;66430;50.182;11.704;2023-02-01T08:54:01;8;8;
77365;PMS5003;66430;50.182;11.704;2023-02-01T08:56:26;9;8;
77365;PMS5003;66430;50.182;11.704;2023-02-01T08:58:52;11;7;
77365;PMS5003;66430;50.182;11.704;2023-02-01T09:01:18;15;9;
77365;PMS5003;66430;50.182;11.704;2023-02-01T09:03:43;11;8;
77365;PMS5003;66430;50.182;11.704;2023-02-01T09:06:10;8;8;
77365;PMS5003;66430;50.182;11.704;2023-02-01T09:08:35;9;6;
77365;PMS5003;66430;50.182;11.704;2023-02-01T09:11:01;6;5;
77365;PMS5003;66430;50.182;11.704;2023-02-01T09:13:26;7;7;
77365;PMS5003;66430;50.182;11.704;2023-02-01T09:15:51;9;9;
77365;PMS5003;66430;50.182;11.704;2023-02-01T09:18:17;9;7;
77365;PMS5003;66430;50.182;11.704;2023-02-01T09:20:42;8;5;
77365;PMS5003;66430;50.182;11.704;2023-02-01T09:23:10;8;7;
77365;PMS5003;66430;50.182;11.704;2023-02-01T09:25:33;8;7;
77365;PMS5003;66430;50.182;11.704;2023-02-01T09:27:59;8;7;
77365;PMS5003;66430;50.182;11.704;2023-02-01T09:30:24;15;10;
77365;PMS5003;66430;50.182;11.704;2023-02-01T09:32:50;6;6;
77365;PMS5003;66430;50.182;11.704;2023-02-01T09:35:20;10;6;
77365;PMS5003;66430;50.182;11.704;2023-02-01T09:37:41;9;6;
77365;PMS5003;66430;50.182;11.704;2023-02-01T09:40:08;18;9;
77365;PMS5003;66430;50.182;11.704;2023-02-01T09:45:02;10;8;
77365;PMS5003;66430;50.182;11.704;2023-02-01T09:47:23;11;9;
77365;PMS5003;66430;50.182;11.704;2023-02-01T09:49:51;13;8;
77365;PMS5003;66430;50.182;11.704;2023-02-01T09:52:14;6;6;
77365;PMS5003;66430;50.182;11.704;2023-02-01T09:54:41;12;9;
77365;PMS5003;66430;50.182;11.704;2023-02-01T09:57:06;8;6;
77365;PMS5003;66430;50.182;11.704;2023-02-01T09:59:32;8;6;
77365;PMS5003;66430;50.182;11.704;2023-02-01T10:01:56;6;6;
77365;PMS5003;66430;50.182;11.704;2023-02-01T10:04:22;10;8;
77365;PMS5003;66430;50.182;11.704;2023-02-01T10:06:56;10;10;
77365;PMS5003;66430;50.182;11.704;2023-02-01T10:09:15;12;6;
77365;PMS5003;66430;50.182;11.704;2023-02-01T10:11:41;12;8;
77365;PMS5003;66430;50.182;11.704;2023-02-01T10:14:06;11;9;
77365;PMS5003;66430;50.182;11.704;2023-02-01T10:16:33;11;6;
77365;PMS5003;66430;50.182;11.704;2023-02-01T10:18:57;6;5;
77365;PMS5003;66430;50.182;11.704;2023-02-01T10:21:25;8;8;
77365;PMS5003;66430;50.182;11.704;2023-02-01T10:23:52;8;8;
77365;PMS5003;66430;50.182;11.704;2023-02-01T10:26:15;6;6;
77365;PMS5003;66430;50.182;11.704;2023-02-01T10:28:42;9;6;
77365;PMS5003;66430;50.182;11.704;2023-02-01T10:31:03;8;8;
77365;PMS5003;66430;50.182;11.704;2023-02-01T10:33:31;13;6;
77365;PMS5003;66430;50.182;11.704;2023-02-01T10:35:55;10;9;
77365;PMS5003;66430;50.182;11.704;2023-02-01T10:38:21;6;6;
77365;PMS5003;66430;50.182;11.704;2023-02-01T10:40:45;10;8;
77365;PMS5003;66430;50.182;11.704;2023-02-01T10:43:11;10;9;
77365;PMS5003;66430;50.182;11.704;2023-02-01T10:45:36;12;10;
77365;PMS5003;66430;50.182;11.704;2023-02-01T10:48:06;8;8;
77365;PMS5003;66430;50.182;11.704;2023-02-01T10:50:31;8;5;
77365;PMS5003;66430;50.182;11.704;2023-02-01T10:52:54;10;8;
77365;PMS5003;66430;50.182;11.704;2023-02-01T10:57:45;9;9;
77365;PMS5003;66430;50.182;11.704;2023-02-01T11:02:34;9;8;
77365;PMS5003;66430;50.182;11.704;2023-02-01T11:05:00;9;6;
77365;PMS5003;66430;50.182;11.704;2023-02-01T11:07:25;8;6;
77365;PMS5003;66430;50.182;11.704;2023-02-01T11:09:51;9;6;
77365;PMS5003;66430;50.182;11.704;2023-02-01T11:12:22;6;5;
77365;PMS5003;66430;50.182;11.704;2023-02-01T11:14:41;8;5;
77365;PMS5003;66430;50.182;11.704;2023-02-01T11:19:32;10;8;
77365;PMS5003;66430;50.182;11.704;2023-02-01T11:21:58;6;6;
77365;PMS5003;66430;50.182;11.704;2023-02-01T11:24:23;11;9;
77365;PMS5003;66430;50.182;11.704;2023-02-01T11:26:48;11;8;
77365;PMS5003;66430;50.182;11.704;2023-02-01T11:29:15;6;6;
77365;PMS5003;66430;50.182;11.704;2023-02-01T11:31:40;11;9;
77365;PMS5003;66430;50.182;11.704;2023-02-01T11:34:06;6;6;
77365;PMS5003;66430;50.182;11.704;2023-02-01T11:36:31;10;7;
77365;PMS5003;66430;50.182;11.704;2023-02-01T11:41:23;14;9;
77365;PMS5003;66430;50.182;11.704;2023-02-01T11:43:52;8;8;
77365;PMS5003;66430;50.182;11.704;2023-02-01T11:46:17;10;6;
77365;PMS5003;66430;50.182;11.704;2023-02-01T11:48:39;10;9;
77365;PMS5003;66430;50.182;11.704;2023-02-01T11:51:14;12;9;
77365;PMS5003;66430;50.182;11.704;2023-02-01T11:53:35;10;6;
77365;PMS5003;66430;50.182;11.704;2023-02-01T11:55:57;10;7;
77365;PMS5003;66430;50.182;11.704;2023-02-01T12:00:52;11;7;
77365;PMS5003;66430;50.182;11.704;2023-02-01T12:03:22;6;6;
77365;PMS5003;66430;50.182;11.704;2023-02-01T12:05:41;10;10;
77365;PMS5003;66430;50.182;11.704;2023-02-01T12:10:32;9;8;
77365;PMS5003;66430;50.182;11.704;2023-02-01T12:12:57;11;9;
77365;PMS5003;66430;50.182;11.704;2023-02-01T12:15:24;9;7;
77365;PMS5003;66430;50.182;11.704;2023-02-01T12:17:53;11;9;
77365;PMS5003;66430;50.182;11.704;2023-02-01T12:20:18;10;8;
77365;PMS5003;66430;50.182;11.704;2023-02-01T12:22:41;11;10;
77365;PMS5003;66430;50.182;11.704;2023-02-01T12:25:09;5;5;
77365;PMS5003;66430;50.182;11.704;2023-02-01T12:29:57;4;4;
77365;PMS5003;66430;50.182;11.704;2023-02-01T12:32:22;10;10;
77365;PMS5003;66430;50.182;11.704;2023-02-01T12:34:49;6;6;
77365;PMS5003;66430;50.182;11.704;2023-02-01T12:37:13;6;6;
77365;PMS5003;66430;50.182;11.704;2023-02-01T12:39:38;8;5;
77365;PMS5003;66430;50.182;11.704;2023-02-01T12:42:03;8;6;
77365;PMS5003;66430;50.182;11.704;2023-02-01T12:44:31;9;9;
77365;PMS5003;66430;50.182;11.704;2023-02-01T12:46:53;5;5;
77365;PMS5003;66430;50.182;11.704;2023-02-01T12:49:19;10;6;
77365;PMS5003;66430;50.182;11.704;2023-02-01T12:51:45;9;8;
77365;PMS5003;66430;50.182;11.704;2023-02-01T12:54:11;5;5;
77365;PMS5003;66430;50.182;11.704;2023-02-01T12:56:37;11;9;
77365;PMS5003;66430;50.182;11.704;2023-02-01T12:59:02;6;6;
77365;PMS5003;66430;50.182;11.704;2023-02-01T13:01:27;8;8;
77365;PMS5003;66430;50.182;11.704;2023-02-01T13:03:54;8;8;
77365;PMS5003;66430;50.182;11.704;2023-02-01T13:06:17;10;8;
77365;PMS5003;66430;50.182;11.704;2023-02-01T13:08:43;10;8;
77365;PMS5003;66430;50.182;11.704;2023-02-01T13:11:09;8;8;
77365;PMS5003;66430;50.182;11.704;2023-02-01T13:13:36;8;8;
77365;PMS5003;66430;50.182;11.704;2023-02-01T13:16:01;6;6;
77365;PMS5003;66430;50.182;11.704;2023-02-01T13:18:25;9;9;
77365;PMS5003;66430;50.182;11.704;2023-02-01T13:20:51;9;8;
77365;PMS5003;66430;50.182;11.704;2023-02-01T13:23:21;8;6;
77365;PMS5003;66430;50.182;11.704;2023-02-01T13:25:43;10;9;
77365;PMS5003;66430;50.182;11.704;2023-02-01T13:28:09;9;8;
77365;PMS5003;66430;50.182;11.704;2023-02-01T13:30:36;8;7;
77365;PMS5003;66430;50.182;11.704;2023-02-01T13:33:10;11;11;
77365;PMS5003;66430;50.182;11.704;2023-02-01T13:35:27;12;9;
77365;PMS5003;66430;50.182;11.704;2023-02-01T13:37:53;11;9;
77365;PMS5003;66430;50.182;11.704;2023-02-01T13:40:18;8;8;
77365;PMS5003;66430;50.182;11.704;2023-02-01T13:42:42;8;5;
77365;PMS5003;66430;50.182;11.704;2023-02-01T13:45:05;6;5;
77365;PMS5003;66430;50.182;11.704;2023-02-01T13:47:31;10;8;
77365;PMS5003;66430;50.182;11.704;2023-02-01T13:49:58;9;5;
77365;PMS5003;66430;50.182;11.704;2023-02-01T13:52:24;9;8;
77365;PMS5003;66430;50.182;11.704;2023-02-01T13:54:47;6;5;
77365;PMS5003;66430;50.182;11.704;2023-02-01T13:57:23;8;8;
77365;PMS5003;66430;50.182;11.704;2023-02-01T14:06:54;10;9;
77365;PMS5003;66430;50.182;11.704;2023-02-01T14:11:46;9;5;
77365;PMS5003;66430;50.182;11.704;2023-02-01T14:16:36;9;8;
77365;PMS5003;66430;50.182;11.704;2023-02-01T14:19:03;6;6;
77365;PMS5003;66430;50.182;11.704;2023-02-01T14:21:28;6;5;
77365;PMS5003;66430;50.182;11.704;2023-02-01T14:23:56;5;5;
77365;PMS5003;66430;50.182;11.704;2023-02-01T14:26:19;6;5;
77365;PMS5003;66430;50.182;11.704;2023-02-01T14:28:47;6;6;
77365;PMS5003;66430;50.182;11.704;2023-02-01T14:31:16;8;8;
77365;PMS5003;66430;50.182;11.704;2023-02-01T14:33:35;8;5;
77365;PMS5003;66430;50.182;11.704;2023-02-01T14:36:04;8;6;
77365;PMS5003;66430;50.182;11.704;2023-02-01T14:38:26;9;6;
77365;PMS5003;66430;50.182;11.704;2023-02-01T14:40:52;9;6;
77365;PMS5003;66430;50.182;11.704;2023-02-01T14:43:17;6;5;
77365;PMS5003;66430;50.182;11.704;2023-02-01T14:45:48;5;5;
77365;PMS5003;66430;50.182;11.704;2023-02-01T14:50:34;8;6;
77365;PMS5003;66430;50.182;11.704;2023-02-01T14:53:04;5;4;
77365;PMS5003;66430;50.182;11.704;2023-02-01T14:55:27;9;6;
77365;PMS5003;66430;50.182;11.704;2023-02-01T14:57:52;4;4;
77365;PMS5003;66430;50.182;11.704;2023-02-01T15:00:19;5;5;
77365;PMS5003;66430;50.182;11.704;2023-02-01T15:02:42;9;6;
77365;PMS5003;66430;50.182;11.704;2023-02-01T15:07:33;6;6;
77365;PMS5003;66430;50.182;11.704;2023-02-01T15:09:58;6;6;
77365;PMS5003;66430;50.182;11.704;2023-02-01T15:12:24;11;5;
77365;PMS5003;66430;50.182;11.704;2023-02-01T15:17:17;10;6;
77365;PMS5003;66430;50.182;11.704;2023-02-01T15:19:40;5;5;
77365;PMS5003;66430;50.182;11.704;2023-02-01T15:24:31;10;4;
77365;PMS5003;66430;50.182;11.704;2023-02-01T15:27:02;6;5;
77365;PMS5003;66430;50.182;11.704;2023-02-01T15:29:23;4;4;
77365;PMS5003;66430;50.182;11.704;2023-02-01T15:31:49;5;4;
77365;PMS5003;66430;50.182;11.704;2023-02-01T15:34:13;5;5;
77365;PMS5003;66430;50.182;11.704;2023-02-01T15:36:39;10;8;
77365;PMS5003;66430;50.182;11.704;2023-02-01T15:41:30;5;5;
77365;PMS5003;66430;50.182;11.704;2023-02-01T15:46:22;4;3;
77365;PMS5003;66430;50.182;11.704;2023-02-01T15:48:47;6;6;
77365;PMS5003;66430;50.182;11.704;2023-02-01T15:51:13;4;3;
77365;PMS5003;66430;50.182;11.704;2023-02-01T15:53:37;4;4;
77365;PMS5003;66430;50.182;11.704;2023-02-01T15:56:03;6;4;
77365;PMS5003;66430;50.182;11.704;2023-02-01T15:58:28;5;4;
77365;PMS5003;66430;50.182;11.704;2023-02-01T16:00:54;8;3;
77365;PMS5003;66430;50.182;11.704;2023-02-01T16:03:26;5;5;
77365;PMS5003;66430;50.182;11.704;2023-02-01T16:05:45;10;4;
77365;PMS5003;66430;50.182;11.704;2023-02-01T16:08:11;5;4;
77365;PMS5003;66430;50.182;11.704;2023-02-01T16:10:38;3;3;
77365;PMS5003;66430;50.182;11.704;2023-02-01T16:13:02;5;5;
77365;PMS5003;66430;50.182;11.704;2023-02-01T16:15:27;6;6;
77365;PMS5003;66430;50.182;11.704;2023-02-01T16:17:53;6;4;
77365;PMS5003;66430;50.182;11.704;2023-02-01T16:20:19;8;8;
77365;PMS5003;66430;50.182;11.704;2023-02-01T16:22:44;5;4;
77365;PMS5003;66430;50.182;11.704;2023-02-01T16:25:10;5;5;
77365;PMS5003;66430;50.182;11.704;2023-02-01T16:27:35;9;5;
77365;PMS5003;66430;50.182;11.704;2023-02-01T16:30:01;6;4;
77365;PMS5003;66430;50.182;11.704;2023-02-01T16:32:27;9;6;
77365;PMS5003;66430;50.182;11.704;2023-02-01T16:34:52;8;5;
77365;PMS5003;66430;50.182;11.704;2023-02-01T16:37:19;9;6;
77365;PMS5003;66430;50.182;11.704;2023-02-01T16:39:43;5;4;
77365;PMS5003;66430;50.182;11.704;2023-02-01T16:42:10;9;6;
77365;PMS5003;66430;50.182;11.704;2023-02-01T16:44:34;8;5;
77365;PMS5003;66430;50.182;11.704;2023-02-01T16:47:00;10;6;
77365;PMS5003;66430;50.182;11.704;2023-02-01T16:49:25;6;4;
77365;PMS5003;66430;50.182;11.704;2023-02-01T16:51:52;12;8;
77365;PMS5003;66430;50.182;11.704;2023-02-01T16:54:17;5;5;
77365;PMS5003;66430;50.182;11.704;2023-02-01T16:56:42;6;4;
77365;PMS5003;66430;50.182;11.704;2023-02-01T16:59:08;6;6;